Time;durP1;ratioP1;P1;durP2;ratioP2;P2;SDS_P1;SDS_P2;PMS_P1;PMS_P2;Temp;Humidity;BMP_temperature;BMP_pressure;BME280_temperature;BME280_humidity;BME280_pressure;Samples;Min_cycle;Max_cycle;Signal;HPM_P1;HPM_P2
2021/04/05 00:00:42;;;;;;;17.80;10.20;;;;;;;3.21;64.66;100256.09;1777045;78;21175;-61
2021/04/05 00:03:14;;;;;;;17.17;9.75;;;;;;;3.27;64.48;100245.36;1775768;78;21152;-58
2021/04/05 00:05:43;;;;;;;15.32;10.23;;;;;;;3.29;64.39;100246.58;1746061;80;21447;-56
2021/04/05 00:08:11;;;;;;;17.87;11.22;;;;;;;3.28;64.23;100252.25;1781337;78;21170;-56
2021/04/05 00:10:52;;;;;;;14.23;9.83;;;;;;;3.24;64.18;100251.19;1774064;78;21619;-57
2021/04/05 00:13:27;;;;;;;19.15;9.83;;;;;;;3.23;64.24;100250.79;1785538;78;21578;-57
2021/04/05 00:15:55;;;;;;;15.75;9.68;;;;;;;3.18;64.10;100251.05;1751726;78;21136;-57
2021/04/05 00:18:24;;;;;;;20.00;9.45;;;;;;;3.09;64.58;100249.77;1756053;80;21195;-57
2021/04/05 00:21:08;;;;;;;22.27;11.38;;;;;;;3.02;65.04;100252.28;1770712;78;21583;-57
2021/04/05 00:23:35;;;;;;;20.75;11.55;;;;;;;2.95;65.27;100247.02;1749481;80;21569;-57
2021/04/05 00:26:05;;;;;;;22.32;10.18;;;;;;;2.85;65.53;100244.50;1749565;80;21583;-57
2021/04/05 00:28:35;;;;;;;16.87;9.83;;;;;;;2.79;65.64;100238.70;1768686;78;21647;-57
2021/04/05 00:31:04;;;;;;;16.57;10.18;;;;;;;2.74;65.77;100235.48;1775030;78;21170;-57
2021/04/05 00:33:33;;;;;;;15.45;10.53;;;;;;;2.71;66.07;100232.20;1703973;82;21215;-57
2021/04/05 00:36:01;;;;;;;15.95;9.83;;;;;;;2.68;66.14;100226.69;1704474;81;21180;-57
2021/04/05 00:38:30;;;;;;;20.52;9.98;;;;;;;2.67;66.15;100228.06;1745161;80;21181;-57
2021/04/05 00:41:11;;;;;;;12.07;8.43;;;;;;;2.68;66.14;100226.69;1704335;82;21474;-57
2021/04/05 00:43:42;;;;;;;13.80;9.48;;;;;;;2.68;66.14;100226.69;1739302;80;21786;-57
2021/04/05 00:46:11;;;;;;;16.52;10.45;;;;;;;2.78;65.83;100224.01;1714933;82;21177;-57
2021/04/05 00:48:39;;;;;;;16.95;10.23;;;;;;;2.84;65.94;100222.88;1705326;80;21145;-57
2021/04/05 00:51:12;;;;;;;18.55;10.45;;;;;;;2.86;65.72;100219.73;1714332;80;21121;-57
2021/04/05 00:53:42;;;;;;;18.42;10.80;;;;;;;2.86;65.72;100219.73;1738837;80;21169;-57
2021/04/05 00:56:11;;;;;;;20.90;11.28;;;;;;;2.81;65.28;100219.57;1722328;80;21995;-57
2021/04/05 00:58:40;;;;;;;17.98;12.37;;;;;;;2.81;65.28;100219.57;1710833;83;21173;-57
2021/04/05 01:01:10;;;;;;;18.40;11.38;;;;;;;2.74;65.41;100217.30;1713335;83;21129;-57
2021/04/05 01:03:41;;;;;;;18.10;11.73;;;;;;;2.74;65.41;100217.30;1763502;79;21113;-57
2021/04/05 01:06:18;;;;;;;15.08;10.43;;;;;;;2.67;65.47;100219.80;1751816;79;21132;-58
2021/04/05 01:08:46;;;;;;;22.40;12.78;;;;;;;2.60;65.49;100211.94;1720603;80;21207;-58
2021/04/05 01:11:16;;;;;;;19.70;12.20;;;;;;;2.57;65.98;100215.98;1756886;79;21160;-57
2021/04/05 01:13:45;;;;;;;17.23;10.13;;;;;;;2.57;65.98;100215.98;1750604;79;21140;-58
2021/04/05 01:16:15;;;;;;;19.23;12.95;;;;;;;2.58;66.03;100220.27;1728315;81;21105;-58
2021/04/05 01:18:43;;;;;;;19.95;11.73;;;;;;;2.58;65.67;100216.37;1643550;84;21742;-57
2021/04/05 01:21:11;;;;;;;19.90;12.93;;;;;;;2.58;65.67;100216.37;1751241;79;21391;-58
2021/04/05 01:23:39;;;;;;;18.00;12.10;;;;;;;2.57;65.92;100210.78;1686284;83;21209;-57
2021/04/05 01:26:06;;;;;;;16.55;11.28;;;;;;;2.56;65.70;100207.83;1702077;82;21620;-58
2021/04/05 01:28:34;;;;;;;16.15;10.10;;;;;;;2.56;65.70;100207.83;1748911;79;21183;-58
2021/04/05 01:31:03;;;;;;;17.27;9.53;;;;;;;2.53;65.85;100203.61;1750633;79;21165;-58
2021/04/05 01:33:36;;;;;;;16.07;9.68;;;;;;;2.55;65.99;100208.73;1729547;79;21200;-58
2021/04/05 01:36:12;;;;;;;14.68;10.30;;;;;;;2.53;65.99;100205.38;1749919;79;21201;-58
2021/04/05 01:38:48;;;;;;;14.78;9.28;;;;;;;2.52;66.00;100213.64;1757328;79;21196;-58
2021/04/05 01:41:25;;;;;;;15.03;10.13;;;;;;;2.47;66.12;100205.66;1760040;79;21159;-58
2021/04/05 01:43:53;;;;;;;17.62;10.88;;;;;;;2.46;66.02;100211.33;1748105;79;21524;-58
2021/04/05 01:46:23;;;;;;;18.65;12.30;;;;;;;2.40;65.95;100211.18;1691366;82;22033;-58
2021/04/05 01:48:53;;;;;;;14.50;10.85;;;;;;;2.33;66.00;100207.18;1694123;84;21191;-57
2021/04/05 01:51:23;;;;;;;18.12;12.53;;;;;;;2.28;66.14;100203.97;1680182;82;21215;-57
2021/04/05 01:53:51;;;;;;;18.80;11.35;;;;;;;2.28;66.00;100202.67;1683594;83;21138;-57
2021/04/05 01:56:19;;;;;;;19.52;11.83;;;;;;;2.29;66.10;100198.34;1758370;79;21145;-57
2021/04/05 01:58:49;;;;;;;19.05;11.35;;;;;;;2.29;66.10;100200.94;1747242;79;21226;-57
2021/04/05 02:01:22;;;;;;;19.90;13.80;;;;;;;2.27;66.15;100201.45;1748425;79;21204;-57
2021/04/05 02:03:51;;;;;;;20.68;12.65;;;;;;;2.21;66.34;100198.23;1756970;79;21552;-57
2021/04/05 02:06:26;;;;;;;19.25;10.93;;;;;;;2.16;66.56;100192.89;1747976;81;21595;-59
2021/04/05 02:08:53;;;;;;;20.55;13.05;;;;;;;2.14;66.71;100192.13;1750379;79;21156;-61
2021/04/05 02:11:31;;;;;;;18.82;12.45;;;;;;;2.15;66.83;100191.20;1755812;79;21189;-61
2021/04/05 02:14:01;;;;;;;15.55;10.08;;;;;;;2.14;66.82;100186.94;1725708;79;21203;-60
2021/04/05 02:16:29;;;;;;;17.12;10.43;;;;;;;2.14;66.82;100186.94;1735948;79;21180;-59
2021/04/05 02:18:58;;;;;;;16.27;11.00;;;;;;;2.14;66.97;100192.13;1728602;81;21200;-60
2021/04/05 02:21:28;;;;;;;18.05;10.28;;;;;;;2.11;66.96;100190.51;1743700;81;21161;-60
2021/04/05 02:24:04;;;;;;;13.58;9.08;;;;;;;2.13;66.89;100185.24;1752883;79;21185;-59
2021/04/05 02:26:35;;;;;;;18.85;10.85;;;;;;;2.10;66.88;100180.19;1747374;79;21108;-60
2021/04/05 02:29:04;;;;;;;13.48;9.28;;;;;;;2.16;66.73;100185.93;1748173;79;21168;-59
2021/04/05 02:31:32;;;;;;;15.80;10.43;;;;;;;2.28;66.42;100159.83;1757513;79;21180;-59
2021/04/05 02:34:02;;;;;;;17.32;10.43;;;;;;;2.36;66.07;100173.28;1749205;79;21765;-60
2021/04/05 02:36:32;;;;;;;16.97;11.20;;;;;;;2.43;66.04;100175.58;1748787;79;21223;-59
2021/04/05 02:39:05;;;;;;;14.90;9.40;;;;;;;2.38;66.17;100174.03;1748470;79;21257;-59
2021/04/05 02:41:37;;;;;;;14.45;9.28;;;;;;;2.38;66.17;100174.03;1725528;79;21176;-60
2021/04/05 02:44:08;;;;;;;18.75;10.35;;;;;;;2.37;65.86;100174.11;1731054;81;21389;-59
2021/04/05 02:46:37;;;;;;;15.55;9.68;;;;;;;2.32;65.93;100180.85;1710327;79;21155;-59
2021/04/05 02:49:12;;;;;;;17.27;9.88;;;;;;;2.27;66.03;100172.88;1754789;79;21183;-59
2021/04/05 02:51:45;;;;;;;17.48;10.05;;;;;;;2.19;66.20;100166.78;1733693;81;21220;-59
2021/04/05 02:54:13;;;;;;;20.23;10.80;;;;;;;2.19;66.20;100166.78;1754238;79;21591;-59
2021/04/05 02:56:42;;;;;;;19.65;9.93;;;;;;;2.15;66.17;100172.59;1754989;79;21176;-59
2021/04/05 02:59:10;;;;;;;16.02;10.18;;;;;;;2.09;66.30;100170.74;1763242;79;21619;-60
2021/04/05 03:01:39;;;;;;;19.87;10.38;;;;;;;2.06;66.33;100172.19;1735834;81;21121;-59
2021/04/05 03:04:06;;;;;;;16.90;10.48;;;;;;;2.02;66.38;100171.03;1732875;80;21634;-60
2021/04/05 03:06:34;;;;;;;16.20;9.03;;;;;;;1.99;66.43;100176.36;1737932;81;21151;-60
2021/04/05 03:09:05;;;;;;;15.63;9.38;;;;;;;1.96;66.57;100169.19;1759867;79;21186;-60
2021/04/05 03:11:35;;;;;;;13.75;8.20;;;;;;;1.95;66.64;100171.38;1755600;79;21216;-60
2021/04/05 03:14:08;;;;;;;16.37;10.48;;;;;;;1.95;66.67;100167.05;1754925;79;22221;-59
2021/04/05 03:16:38;;;;;;;16.02;9.13;;;;;;;1.95;66.66;100169.66;1730392;79;21761;-61
2021/04/05 03:19:06;;;;;;;13.83;8.98;;;;;;;1.99;66.55;100171.17;1730606;81;21187;-59
2021/04/05 03:21:33;;;;;;;15.68;8.80;;;;;;;2.01;66.42;100164.61;1713303;81;21176;-60
2021/04/05 03:24:02;;;;;;;14.95;8.45;;;;;;;2.01;66.42;100164.61;1715491;81;21117;-60
2021/04/05 03:26:29;;;;;;;17.80;9.98;;;;;;;1.99;66.38;100164.69;1753265;80;21196;-60
2021/04/05 03:28:57;;;;;;;16.75;9.08;;;;;;;1.99;66.33;100161.26;1756805;81;21603;-59
2021/04/05 03:31:26;;;;;;;17.60;9.70;;;;;;;1.99;66.20;100158.19;1761870;79;21144;-59
2021/04/05 03:34:21;;;;;;;14.83;9.48;;;;;;;1.99;65.98;100149.58;1735695;79;21175;-60
2021/04/05 03:36:54;;;;;;;13.48;9.63;;;;;;;1.96;65.86;100151.02;1737198;80;21132;-57
2021/04/05 03:39:22;;;;;;;20.95;11.08;;;;;;;1.90;65.94;100146.97;1735652;79;21211;-57
2021/04/05 03:42:14;;;;;;;17.17;11.18;;;;;;;1.86;65.98;100142.83;1730129;80;21585;-56
2021/04/05 03:45:05;;;;;;;13.32;8.08;;;;;;;1.86;65.98;100142.83;1758724;79;21156;-55
2021/04/05 03:47:59;;;;;;;14.00;8.80;;;;;;;1.80;65.81;100138.78;1753969;79;21148;-57
2021/04/05 03:50:40;;;;;;;13.62;8.13;;;;;;;1.81;65.84;100147.40;1750256;80;21332;-57
2021/04/05 03:53:19;;;;;;;15.85;9.88;;;;;;;1.79;65.91;100146.63;1759564;79;21368;-57
2021/04/05 03:55:52;;;;;;;21.68;11.78;;;;;;;1.81;65.88;100140.44;1748894;79;21168;-56
2021/04/05 03:58:20;;;;;;;15.68;10.65;;;;;;;1.83;65.84;100142.53;1729666;79;21242;-57
2021/04/05 04:00:47;;;;;;;17.15;11.40;;;;;;;1.84;65.74;100141.59;1753580;79;21149;-57
2021/04/05 04:03:18;;;;;;;21.80;12.07;;;;;;;1.86;65.70;100142.83;1726322;81;21639;-57
2021/04/05 04:08:32;;;;;;;19.35;11.20;;;;;;;1.96;66.13;100145.36;1876672;75;22366;-59
2021/04/05 04:10:58;;;;;;;15.75;10.10;;;;;;;2.01;66.24;100143.38;1855532;75;21069;-59
2021/04/05 04:13:27;;;;;;;19.40;11.35;;;;;;;2.12;66.30;100142.02;1849173;75;21226;-59
2021/04/05 04:15:54;;;;;;;15.58;10.10;;;;;;;2.23;66.29;100144.94;1816227;75;21176;-59
2021/04/05 04:18:22;;;;;;;15.63;10.03;;;;;;;2.30;66.24;100134.63;1855085;75;21104;-58
2021/04/05 04:20:50;;;;;;;16.32;10.18;;;;;;;2.41;66.01;100136.70;1824261;75;21215;-58
2021/04/05 04:23:17;;;;;;;16.40;9.85;;;;;;;2.44;65.88;100135.25;1814625;76;21141;-59
2021/04/05 04:25:45;;;;;;;16.37;9.53;;;;;;;2.52;65.75;100136.15;1858255;75;21188;-59
2021/04/05 04:28:16;;;;;;;16.20;9.40;;;;;;;2.58;65.61;100122.86;1823973;77;22196;-59
2021/04/05 04:30:43;;;;;;;15.70;8.70;;;;;;;2.58;65.61;100122.86;1811312;76;21224;-59
2021/04/05 04:33:11;;;;;;;15.70;9.18;;;;;;;2.73;65.62;100127.27;1853836;75;21206;-59
2021/04/05 04:35:40;;;;;;;17.57;10.30;;;;;;;2.81;66.05;100118.22;1846232;75;21666;-59
2021/04/05 04:38:08;;;;;;;12.93;8.53;;;;;;;2.86;65.77;100114.48;1859142;75;21340;-59
2021/04/05 04:40:36;;;;;;;13.05;6.75;;;;;;;2.86;65.77;100114.48;1854676;75;21201;-59
2021/04/05 04:43:06;;;;;;;14.30;8.00;;;;;;;3.01;65.34;100120.64;1854703;75;21707;-60
2021/04/05 04:45:34;;;;;;;12.93;6.80;;;;;;;3.16;65.21;100123.72;1836212;75;21562;-59
2021/04/05 04:48:02;;;;;;;11.33;5.62;;;;;;;3.35;64.94;100117.06;1814755;77;21604;-59
2021/04/05 04:50:29;;;;;;;13.83;6.20;;;;;;;3.47;64.25;100119.45;1845714;76;21432;-59
2021/04/05 04:52:57;;;;;;;11.20;7.08;;;;;;;3.60;63.68;100109.22;1847437;75;21525;-59
2021/04/05 04:55:26;;;;;;;13.45;7.42;;;;;;;3.60;63.68;100109.22;1846399;76;21187;-60
2021/04/05 04:57:59;;;;;;;11.22;6.33;;;;;;;3.70;63.51;100101.75;1850655;75;21632;-61
2021/04/05 05:00:29;;;;;;;14.00;7.75;;;;;;;3.70;63.51;100101.75;1820217;75;21145;-57
2021/04/05 05:02:57;;;;;;;13.28;7.58;;;;;;;3.70;63.49;100099.98;1852195;75;21359;-58
2021/04/05 05:05:28;;;;;;;11.22;5.75;;;;;;;3.79;63.28;100096.48;1848488;75;21184;-57
2021/04/05 05:07:55;;;;;;;13.78;6.67;;;;;;;3.85;62.92;100090.47;1844105;75;21171;-58
2021/04/05 05:10:23;;;;;;;12.60;6.70;;;;;;;3.86;62.68;100086.92;1848094;75;21509;-57
2021/04/05 05:12:51;;;;;;;14.60;7.47;;;;;;;3.89;62.55;100084.63;1813410;77;21113;-57
2021/04/05 05:15:18;;;;;;;10.63;5.70;;;;;;;3.91;62.83;100085.37;1854753;75;21170;-57
2021/04/05 05:17:47;;;;;;;11.63;6.28;;;;;;;3.95;62.97;100082.13;1824699;77;21175;-58
2021/04/05 05:20:18;;;;;;;12.10;6.37;;;;;;;3.97;62.89;100085.03;1845405;75;21112;-58
2021/04/05 05:23:00;;;;;;;11.80;6.60;;;;;;;4.03;62.99;100084.66;1852877;75;21131;-58
2021/04/05 05:25:28;;;;;;;9.55;5.67;;;;;;;4.14;62.88;100081.92;1854795;75;21552;-58
2021/04/05 05:28:05;;;;;;;9.70;5.40;;;;;;;4.27;62.80;100082.41;1848748;75;21192;-58
2021/04/05 05:30:33;;;;;;;9.95;6.20;;;;;;;4.39;62.62;100086.06;1855710;76;21210;-58
2021/04/05 05:33:07;;;;;;;9.60;5.72;;;;;;;4.60;61.99;100090.44;1854585;75;21114;-57
2021/04/05 05:35:35;;;;;;;10.38;6.05;;;;;;;4.88;60.71;100095.31;1853204;75;21224;-57
2021/04/05 05:38:05;;;;;;;10.95;6.08;;;;;;;5.05;60.28;100085.63;1816462;75;21223;-58
2021/04/05 05:40:34;;;;;;;10.43;5.70;;;;;;;5.15;60.08;100086.25;1812359;77;21175;-57
2021/04/05 05:43:18;;;;;;;11.78;5.97;;;;;;;5.27;59.80;100079.42;1854083;75;21188;-58
2021/04/05 05:46:10;;;;;;;14.03;5.92;;;;;;;5.44;58.90;100073.14;1822704;77;21203;-58
2021/04/05 05:49:00;;;;;;;14.23;6.40;;;;;;;5.44;58.90;100073.14;1854656;75;21594;-57
2021/04/05 05:52:09;;;;;;;11.05;5.55;;;;;;;5.39;58.48;100070.81;1851468;75;21207;-58
2021/04/05 05:55:06;;;;;;;11.20;5.95;;;;;;;5.39;57.78;100070.81;1852634;75;21224;-58
2021/04/05 05:57:44;;;;;;;8.45;5.80;;;;;;;5.39;57.79;100066.90;1818117;75;22369;-59
2021/04/05 06:00:23;;;;;;;11.73;6.05;;;;;;;5.43;57.20;100061.48;1849823;75;21192;-60
2021/04/05 06:03:15;;;;;;;7.78;4.92;;;;;;;5.43;57.22;100061.05;1855897;75;21184;-59
2021/04/05 06:06:18;;;;;;;12.73;6.35;;;;;;;5.46;57.14;100055.60;1790412;78;21200;-57
2021/04/05 06:09:08;;;;;;;8.58;4.83;;;;;;;5.49;56.98;100047.58;1774996;80;21265;-58
2021/04/05 06:11:56;;;;;;;9.30;5.50;;;;;;;5.52;57.19;100050.00;1755589;80;21187;-56
2021/04/05 06:15:13;;;;;;;8.15;4.30;;;;;;;5.58;57.40;100047.01;1757708;78;21217;-56
2021/04/05 06:18:10;;;;;;;9.98;4.72;;;;;;;5.64;56.51;100049.67;1785945;79;21139;-56
2021/04/05 06:20:53;;;;;;;10.32;4.87;;;;;;;5.64;55.96;100044.45;1788597;78;21169;-57
2021/04/05 06:23:50;;;;;;;12.40;4.05;;;;;;;5.70;55.97;100045.81;1761880;79;21190;-58
2021/04/05 06:26:26;;;;;;;14.55;4.37;;;;;;;5.79;55.58;100045.23;1750086;79;21174;-57
2021/04/05 06:29:24;;;;;;;9.93;4.87;;;;;;;5.90;55.11;100044.52;1789825;78;21233;-57
2021/04/05 06:32:06;;;;;;;6.75;4.00;;;;;;;6.01;55.69;100049.08;1745767;79;21183;-59
2021/04/05 06:34:41;;;;;;;9.05;4.85;;;;;;;6.11;55.15;100035.30;1761857;78;21198;-57
2021/04/05 06:37:35;;;;;;;8.08;4.58;;;;;;;6.21;55.30;100038.13;1786193;78;21230;-59
2021/04/05 06:40:06;;;;;;;10.28;5.15;;;;;;;6.30;55.44;100036.66;1789632;78;21205;-58
2021/04/05 06:42:55;;;;;;;8.83;4.67;;;;;;;6.41;54.72;100035.95;1759500;79;21197;-58
2021/04/05 06:45:59;;;;;;;8.53;4.78;;;;;;;6.46;54.95;100033.86;1786586;78;21203;-59
2021/04/05 06:48:54;;;;;;;14.23;4.95;;;;;;;6.46;54.86;100032.08;1787859;78;21189;-59
2021/04/05 06:51:52;;;;;;;8.43;4.62;;;;;;;6.49;55.01;100030.56;1776834;79;21153;-59
2021/04/05 06:54:43;;;;;;;11.65;5.28;;;;;;;6.54;55.02;100031.56;1756466;80;21190;-59
2021/04/05 06:57:27;;;;;;;8.70;4.87;;;;;;;6.58;55.84;100030.87;1793777;78;21164;-59
2021/04/05 07:00:01;;;;;;;9.50;4.65;;;;;;;6.64;55.87;100032.59;1774209;79;21172;-59
2021/04/05 07:03:18;;;;;;;6.20;3.25;;;;;;;6.73;55.96;100032.91;1774055;79;21222;-58
2021/04/05 07:06:15;;;;;;;10.20;3.35;;;;;;;6.82;54.61;100029.15;1777810;79;21214;-60
2021/04/05 07:09:09;;;;;;;5.70;2.58;;;;;;;6.95;53.19;100027.00;1783741;78;21243;-72
2021/04/05 07:12:02;;;;;;;7.85;3.62;;;;;;;7.05;52.63;100022.78;1780991;79;21223;-70
2021/04/05 07:15:15;;;;;;;7.03;3.62;;;;;;;7.16;52.08;100025.93;1778028;78;21404;-64
2021/04/05 07:18:19;;;;;;;6.05;2.65;;;;;;;7.28;51.99;100028.14;1788603;78;21451;-70
2021/04/05 07:21:10;;;;;;;6.80;3.02;;;;;;;7.37;51.34;100031.42;1780359;79;21377;-68
2021/04/05 07:24:08;;;;;;;7.03;3.55;;;;;;;7.45;50.68;100022.54;1790693;78;21219;-65
2021/04/05 07:27:07;;;;;;;6.97;3.60;;;;;;;7.51;51.30;100012.08;1753235;79;21190;-66
2021/04/05 07:29:46;;;;;;;6.78;3.30;;;;;;;7.53;51.19;100014.97;1761887;80;21223;-65
2021/04/05 07:32:43;;;;;;;7.65;4.08;;;;;;;7.56;51.13;100006.86;1750376;78;21185;-65
2021/04/05 07:35:37;;;;;;;6.15;3.15;;;;;;;7.64;51.46;100002.38;1786868;78;21808;-66
2021/04/05 07:38:15;;;;;;;7.35;2.90;;;;;;;7.73;51.08;99995.62;1788155;78;21211;-65
2021/04/05 07:41:12;;;;;;;8.43;4.33;;;;;;;7.83;51.08;99993.16;1782188;78;21116;-65
2021/04/05 07:44:03;;;;;;;7.17;3.47;;;;;;;7.89;50.46;99984.84;1750567;80;21187;-65
2021/04/05 07:47:04;;;;;;;6.58;2.92;;;;;;;7.87;50.36;99979.72;1781229;78;21533;-64
2021/04/05 07:49:37;;;;;;;7.08;3.40;;;;;;;7.89;50.46;99979.13;1787961;78;21375;-64
2021/04/05 07:52:34;;;;;;;7.50;3.12;;;;;;;7.99;49.80;99977.95;1783911;78;21159;-65
2021/04/05 07:55:03;;;;;;;8.03;3.37;;;;;;;8.09;49.39;99977.62;1791764;78;21160;-64
2021/04/05 07:57:53;;;;;;;7.85;3.77;;;;;;;8.22;49.31;99973.59;1784108;78;21136;-65
2021/04/05 08:01:02;;;;;;;8.30;3.37;;;;;;;8.36;49.13;99960.23;1780948;78;21192;-65
2021/04/05 08:03:54;;;;;;;6.97;3.10;;;;;;;8.56;48.92;99955.27;1775241;78;21619;-64
2021/04/05 08:06:28;;;;;;;4.75;2.00;;;;;;;8.73;48.19;99957.39;1767191;78;21245;-64
2021/04/05 08:09:00;;;;;;;6.37;1.95;;;;;;;8.87;46.79;99943.65;1782031;78;21627;-61
2021/04/05 08:12:13;;;;;;;6.30;1.92;;;;;;;8.96;45.69;99942.93;1779895;78;21219;-60
2021/04/05 08:15:11;;;;;;;4.00;1.62;;;;;;;8.99;44.94;99941.34;1790375;78;21156;-62
2021/04/05 08:18:04;;;;;;;3.47;1.37;;;;;;;9.02;44.87;99936.34;1779659;78;21404;-63
2021/04/05 08:21:04;;;;;;;2.52;0.95;;;;;;;9.06;44.88;99928.56;1795697;78;21179;-63
2021/04/05 08:24:00;;;;;;;9.63;2.42;;;;;;;9.12;42.37;99918.89;1791372;78;21131;-62
2021/04/05 08:26:51;;;;;;;3.90;1.45;;;;;;;9.15;43.98;99919.95;1792298;78;21191;-63
2021/04/05 08:29:37;;;;;;;3.98;1.47;;;;;;;9.23;44.02;99914.92;1790242;78;21126;-62
2021/04/05 08:32:47;;;;;;;2.35;0.90;;;;;;;9.36;44.96;99909.95;1767764;80;21180;-61
2021/04/05 08:35:41;;;;;;;2.12;0.70;;;;;;;9.47;43.58;99905.48;1759485;80;21211;-61
2021/04/05 08:38:20;;;;;;;2.40;0.82;;;;;;;9.53;41.56;99904.63;1791860;78;21167;-62
2021/04/05 08:41:20;;;;;;;4.15;1.30;;;;;;;9.52;40.45;99899.03;1749378;80;21239;-62
2021/04/05 08:44:29;;;;;;;4.25;0.88;;;;;;;9.52;41.95;99891.98;1765866;78;21658;-58
2021/04/05 08:46:58;;;;;;;2.47;0.70;;;;;;;9.58;41.06;99893.25;1778409;78;21211;-59
2021/04/05 08:49:26;;;;;;;2.83;0.90;;;;;;;9.58;39.91;99890.16;1775689;78;21202;-57
2021/04/05 08:51:55;;;;;;;2.67;0.70;;;;;;;9.59;39.16;99881.30;1777575;78;21919;-59
2021/04/05 08:54:28;;;;;;;2.05;0.60;;;;;;;9.61;38.16;99877.23;1780420;79;21227;-58
2021/04/05 08:57:06;;;;;;;3.20;1.05;;;;;;;9.59;38.21;99877.85;1777722;78;21203;-58
2021/04/05 09:00:04;;;;;;;3.95;0.90;;;;;;;9.60;38.30;99869.84;1781810;79;21207;-59
2021/04/05 09:02:42;;;;;;;2.47;0.62;;;;;;;9.67;39.01;99862.28;1752163;78;21203;-58
2021/04/05 09:05:22;;;;;;;3.55;1.20;;;;;;;9.77;38.33;99857.91;1751777;78;21321;-56
2021/04/05 09:07:59;;;;;;;3.60;1.00;;;;;;;9.80;38.11;99858.97;1781912;78;21180;-57
2021/04/05 09:10:31;;;;;;;;;;;;;;;9.83;38.01;99853.91;1818283;77;21764;-58
2021/04/05 09:13:01;;;;;;;5.37;1.50;;;;;;;9.81;37.87;99847.47;1774647;78;21236;-59
2021/04/05 09:15:40;;;;;;;4.03;1.40;;;;;;;9.70;37.96;99848.03;1723099;80;21759;-59
2021/04/05 09:18:55;;;;;;;2.70;0.85;;;;;;;9.62;37.79;99846.91;1810319;78;21169;-59
2021/04/05 09:21:45;;;;;;;3.95;0.90;;;;;;;9.60;37.91;99843.58;1779499;78;21112;-57
2021/04/05 09:24:50;;;;;;;2.20;0.70;;;;;;;9.56;37.12;99847.90;1782871;80;21182;-56
2021/04/05 09:27:57;;;;;;;2.05;0.60;;;;;;;9.55;37.42;99834.41;1816541;77;21385;-55
2021/04/05 09:30:57;;;;;;;3.47;0.85;;;;;;;9.59;37.81;99830.57;1796787;78;21374;-56
2021/04/05 09:34:04;;;;;;;4.00;1.30;;;;;;;9.69;37.63;99828.00;1745597;80;21220;-55
2021/04/05 09:37:18;;;;;;;4.35;1.25;;;;;;;9.74;37.81;99827.13;1780631;78;21188;-57
2021/04/05 09:41:59;;;;;;;2.55;0.78;;;;;;;9.92;37.38;99820.75;1870572;74;22574;-57
2021/04/05 09:44:55;;;;;;;3.50;0.90;;;;;;;9.83;37.28;99820.61;1845346;75;21370;-57
2021/04/05 09:47:56;;;;;;;4.25;1.40;;;;;;;9.87;37.40;99818.55;1811180;77;22535;-56
2021/04/05 09:50:51;;;;;;;6.00;1.92;;;;;;;9.87;37.40;99818.55;1838058;75;21215;-57
2021/04/05 09:53:42;;;;;;;7.40;3.60;;;;;;;9.83;37.28;99810.55;1784854;77;21198;-57
2021/04/05 09:56:15;;;;;;;6.25;2.05;;;;;;;9.81;37.17;99804.61;1787301;78;21752;-57
2021/04/05 09:58:53;;;;;;;6.28;1.95;;;;;;;9.83;37.19;99808.78;1781329;77;21167;-57
2021/04/05 10:01:24;;;;;;;4.85;1.95;;;;;;;9.84;37.22;99806.48;1785773;79;22126;-58
2021/04/05 10:03:59;;;;;;;4.42;1.92;;;;;;;9.86;37.21;99812.92;1754980;79;21163;-58
2021/04/05 10:06:28;;;;;;;4.85;1.98;;;;;;;9.84;37.52;99807.80;1803166;78;21161;-57
2021/04/05 10:08:59;;;;;;;6.78;2.37;;;;;;;9.86;37.67;99801.09;1740794;80;21207;-55
2021/04/05 10:11:28;;;;;;;4.53;1.80;;;;;;;9.95;37.87;99800.78;1816535;78;21098;-55
2021/04/05 10:14:00;;;;;;;4.83;1.70;;;;;;;10.01;37.29;99797.63;1784533;78;21123;-55
2021/04/05 10:16:27;;;;;;;4.50;1.90;;;;;;;10.04;37.31;99794.73;1768710;79;21279;-59
2021/04/05 10:19:02;;;;;;;6.45;2.00;;;;;;;10.11;37.47;99788.47;1781214;78;21649;-57
2021/04/05 10:21:30;;;;;;;4.20;1.70;;;;;;;10.20;37.34;99796.84;1784085;79;21211;-57
2021/04/05 10:23:58;;;;;;;5.20;1.75;;;;;;;10.21;36.99;99782.25;1753199;80;21657;-57
2021/04/05 10:26:29;;;;;;;4.35;1.65;;;;;;;10.26;37.93;99777.09;1783888;78;21198;-57
2021/04/05 10:28:57;;;;;;;4.70;1.75;;;;;;;10.37;38.02;99776.52;1786695;78;21199;-57
2021/04/05 10:31:25;;;;;;;4.30;1.45;;;;;;;10.47;36.97;99766.47;1786780;79;21578;-57
2021/04/05 10:34:04;;;;;;;5.83;1.30;;;;;;;10.50;36.96;99767.52;1783335;78;21242;-56
2021/04/05 10:36:44;;;;;;;3.08;1.07;;;;;;;10.52;36.41;99770.83;1748612;80;21364;-60
2021/04/05 10:39:12;;;;;;;2.75;0.80;;;;;;;10.49;35.40;99773.27;1791760;78;21723;-57
2021/04/05 10:41:54;;;;;;;3.08;0.88;;;;;;;10.44;34.77;99764.96;1788854;78;21184;-60
2021/04/05 10:44:23;;;;;;;2.40;0.72;;;;;;;10.38;34.51;99766.81;1793680;78;21153;-60
2021/04/05 10:46:59;;;;;;;2.17;0.70;;;;;;;10.31;34.40;99770.44;1817056;78;21178;-59
2021/04/05 10:49:29;;;;;;;2.95;0.68;;;;;;;10.28;34.87;99764.63;1789940;78;21614;-58
2021/04/05 10:52:10;;;;;;;2.90;1.05;;;;;;;10.25;35.07;99755.69;1818959;77;22165;-59
2021/04/05 10:54:44;;;;;;;4.08;1.30;;;;;;;10.27;35.41;99755.92;1818944;77;21190;-58
2021/04/05 10:57:30;;;;;;;5.62;1.62;;;;;;;10.28;34.83;99759.37;1765223;78;21210;-57
2021/04/05 11:00:00;;;;;;;2.03;0.83;;;;;;;10.28;34.52;99752.80;1819120;77;21603;-58
2021/04/05 11:03:02;;;;;;;5.05;1.25;;;;;;;10.23;33.55;99752.70;1793110;78;21176;-60
2021/04/05 11:05:33;;;;;;;4.08;1.27;;;;;;;10.19;34.07;99740.80;1807271;78;21175;-58
2021/04/05 11:08:25;;;;;;;3.37;1.12;;;;;;;10.23;34.76;99740.87;1819554;77;21198;-58
2021/04/05 11:11:11;;;;;;;3.80;0.98;;;;;;;10.30;34.66;99734.58;1666468;84;21223;-56
2021/04/05 11:13:47;;;;;;;3.20;1.05;;;;;;;10.39;33.26;99723.28;1645776;85;21650;-57
2021/04/05 11:16:18;;;;;;;3.60;1.02;;;;;;;10.41;32.84;99730.55;1663301;84;21223;-58
2021/04/05 11:18:56;;;;;;;2.37;0.80;;;;;;;10.46;31.96;99724.88;1685044;83;21283;-57
2021/04/05 11:21:33;;;;;;;3.85;1.40;;;;;;;10.51;32.69;99727.92;1665027;84;21635;-59
2021/04/05 11:24:02;;;;;;;4.03;1.35;;;;;;;10.58;32.46;99726.39;1660996;84;21207;-57
2021/04/05 11:26:32;;;;;;;3.95;1.10;;;;;;;10.63;31.88;99718.59;1665942;84;21191;-58
2021/04/05 11:29:03;;;;;;;3.37;1.30;;;;;;;10.68;30.91;99717.19;1672881;85;21181;-57
2021/04/05 11:31:40;;;;;;;3.05;0.95;;;;;;;10.74;31.82;99707.42;1654864;85;21497;-57
2021/04/05 11:34:08;;;;;;;3.27;0.82;;;;;;;10.84;31.97;99706.07;1646449;85;21251;-57
2021/04/05 11:36:47;;;;;;;3.45;1.10;;;;;;;10.97;32.59;99716.30;1673311;83;21232;-56
2021/04/05 11:39:19;;;;;;;3.02;0.90;;;;;;;11.09;31.51;99706.44;1699084;82;21581;-57
2021/04/05 11:41:52;;;;;;;3.47;1.07;;;;;;;11.17;31.55;99700.47;1673997;83;21164;-56
2021/04/05 11:44:29;;;;;;;3.10;0.80;;;;;;;11.24;31.57;99695.78;1673172;83;21212;-57
2021/04/05 11:46:57;;;;;;;3.22;1.10;;;;;;;11.32;31.25;99692.45;1670620;83;21682;-57
2021/04/05 11:49:31;;;;;;;4.17;1.52;;;;;;;11.36;31.10;99681.13;1653146;83;21294;-58
2021/04/05 11:52:09;;;;;;;5.15;1.27;;;;;;;11.43;31.41;99679.56;1671594;83;21246;-58
2021/04/05 11:54:53;;;;;;;4.12;1.50;;;;;;;11.50;30.62;99671.44;1675298;83;21072;-58
2021/04/05 11:57:33;;;;;;;5.05;1.30;;;;;;;11.62;31.04;99667.63;1669707;84;21221;-57
2021/04/05 12:00:09;;;;;;;3.30;1.20;;;;;;;11.81;31.43;99668.48;1648386;85;21266;-58
2021/04/05 12:02:52;;;;;;;4.58;1.60;;;;;;;11.95;30.56;99666.67;1673262;83;21224;-58
2021/04/05 12:05:29;;;;;;;4.97;1.65;;;;;;;11.96;31.00;99656.98;1673688;84;21239;-59
2021/04/05 12:08:04;;;;;;;4.28;1.77;;;;;;;11.87;30.44;99659.50;1675567;85;21236;-60
2021/04/05 12:10:32;;;;;;;4.55;1.95;;;;;;;11.71;30.78;99649.59;1669193;84;21399;-56
2021/04/05 12:13:04;;;;;;;6.22;1.80;;;;;;;11.62;31.45;99646.55;1667868;85;21553;-58
2021/04/05 12:15:32;;;;;;;5.10;1.82;;;;;;;11.59;31.79;99644.70;1645797;85;21240;-57
2021/04/05 12:18:01;;;;;;;6.53;1.95;;;;;;;11.55;31.96;99634.09;1647883;85;21160;-57
2021/04/05 12:20:30;;;;;;;4.17;1.60;;;;;;;11.56;32.01;99635.77;1671301;84;21214;-57
2021/04/05 12:23:08;;;;;;;4.08;1.70;;;;;;;11.56;32.10;99629.17;1664695;85;21281;-58